createdAt,value
2022-08-16T00:04:29.637Z,21.07
2022-08-16T00:09:33.260Z,20.97
2022-08-16T00:14:39.332Z,20.88
2022-08-16T00:19:42.642Z,20.80
2022-08-16T00:24:46.713Z,20.73
2022-08-16T00:30:00.735Z,20.69
2022-08-16T00:35:17.049Z,20.66
2022-08-16T00:40:36.515Z,20.63
2022-08-16T00:45:58.198Z,20.60
2022-08-16T00:51:05.450Z,20.54
2022-08-16T00:56:56.340Z,20.51
2022-08-16T01:01:38.731Z,20.46
2022-08-16T01:06:49.160Z,20.46
2022-08-16T01:12:10.782Z,20.40
2022-08-16T01:17:17.238Z,20.36
2022-08-16T01:22:48.318Z,20.32
2022-08-16T01:27:58.894Z,20.27
2022-08-16T01:33:14.194Z,20.23
2022-08-16T01:38:35.805Z,20.18
2022-08-16T01:43:42.886Z,20.12
2022-08-16T01:48:46.932Z,20.07
2022-08-16T01:53:54.529Z,20.05
2022-08-16T01:59:01.007Z,20.02
2022-08-16T02:04:11.014Z,20.02
2022-08-16T02:09:17.753Z,20.01
2022-08-16T02:14:26.389Z,20.01
2022-08-16T02:19:58.997Z,19.99
2022-08-16T02:24:56.294Z,19.98
2022-08-16T02:30:04.939Z,19.98
2022-08-16T02:35:10.148Z,19.99
2022-08-16T02:40:17.286Z,19.99
2022-08-16T02:45:27.743Z,19.99
2022-08-16T02:50:54.634Z,19.97
2022-08-16T02:55:55.172Z,19.94
2022-08-16T03:00:59.104Z,19.90
2022-08-16T03:06:03.227Z,19.88
2022-08-16T03:11:26.407Z,19.83
2022-08-16T03:16:42.254Z,19.78
2022-08-16T03:22:03.030Z,19.77
2022-08-16T03:27:06.442Z,19.72
2022-08-16T03:32:10.267Z,19.63
2022-08-16T03:37:17.468Z,19.55
2022-08-16T03:42:23.179Z,19.51
2022-08-16T03:47:28.086Z,19.52
2022-08-16T03:52:37.946Z,19.54
2022-08-16T03:57:52.342Z,19.53
2022-08-16T04:02:57.677Z,19.59
2022-08-16T04:08:01.091Z,19.70
2022-08-16T04:13:59.257Z,19.80
2022-08-16T04:18:49.951Z,19.89
2022-08-16T04:23:54.867Z,19.97
2022-08-16T04:29:17.034Z,20.01
2022-08-16T04:34:24.901Z,20.06
2022-08-16T04:39:44.875Z,20.08
2022-08-16T04:44:53.790Z,20.02
2022-08-16T04:49:58.835Z,20.01
2022-08-16T04:55:15.288Z,20.09
2022-08-16T05:00:32.830Z,20.22
2022-08-16T05:05:55.609Z,20.32
2022-08-16T05:11:06.011Z,20.43
2022-08-16T05:16:31.454Z,20.46
2022-08-16T05:21:38.491Z,20.53
2022-08-16T05:26:51.612Z,20.66
2022-08-16T05:31:55.212Z,20.86
2022-08-16T05:36:59.545Z,21.02
2022-08-16T05:42:04.803Z,21.17
2022-08-16T05:47:08.833Z,21.39
2022-08-16T05:52:20.885Z,21.63
2022-08-16T05:57:24.773Z,21.85
2022-08-16T06:02:33.464Z,22.08
2022-08-16T06:07:37.434Z,22.27
2022-08-16T06:12:41.871Z,22.47
2022-08-16T06:17:47.183Z,22.61
2022-08-16T06:23:02.798Z,22.75
2022-08-16T06:28:16.689Z,22.88
2022-08-16T06:33:41.231Z,23.00
2022-08-16T06:38:55.978Z,23.08
2022-08-16T06:44:00.210Z,23.14
2022-08-16T06:49:11.016Z,23.21
2022-08-16T06:54:14.537Z,23.29
2022-08-16T06:59:18.026Z,23.35
2022-08-16T07:04:31.882Z,23.47
2022-08-16T07:09:37.668Z,23.65
2022-08-16T07:14:41.475Z,23.91
2022-08-16T07:20:30.040Z,24.31
2022-08-16T07:25:09.089Z,24.78
2022-08-16T07:30:39.715Z,25.19
2022-08-16T07:35:44.513Z,25.61
2022-08-16T07:41:01.235Z,26.06
2022-08-16T07:46:05.853Z,26.37
2022-08-16T07:51:32.103Z,26.92
2022-08-16T07:56:37.280Z,27.49
2022-08-16T08:01:40.874Z,27.97
2022-08-16T08:06:46.334Z,28.30
2022-08-16T08:12:00.837Z,28.40
2022-08-16T08:17:08.497Z,28.47
2022-08-16T08:22:19.449Z,28.59
2022-08-16T08:27:26.313Z,29.00
2022-08-16T08:32:56.979Z,29.46
2022-08-16T08:37:55.653Z,29.91
2022-08-16T08:43:11.484Z,30.02
2022-08-16T08:48:33.545Z,29.98
2022-08-16T08:53:40.052Z,29.90
2022-08-16T08:58:54.669Z,30.01
2022-08-16T09:04:04.595Z,30.32
2022-08-16T09:09:09.903Z,30.32
2022-08-16T09:14:24.823Z,30.13
2022-08-16T09:19:32.179Z,29.90
2022-08-16T09:24:51.502Z,29.88
2022-08-16T09:29:59.754Z,29.91
2022-08-16T09:35:05.576Z,29.96
2022-08-16T09:40:32.249Z,30.03
2022-08-16T09:45:39.433Z,30.20
2022-08-16T09:50:45.103Z,30.45
2022-08-16T09:55:53.891Z,30.34
2022-08-16T10:01:00.930Z,30.57
2022-08-16T10:06:04.557Z,30.74
2022-08-16T10:11:26.603Z,30.86
2022-08-16T10:16:32.174Z,31.46
2022-08-16T10:21:35.580Z,31.96
2022-08-16T10:27:16.246Z,32.21
2022-08-16T10:32:03.545Z,32.45
2022-08-16T10:37:07.327Z,32.51
2022-08-16T10:42:13.397Z,32.50
2022-08-16T10:47:17.018Z,32.57
2022-08-16T10:52:20.952Z,32.75
2022-08-16T10:57:32.858Z,32.80
2022-08-16T11:02:57.834Z,32.97
2022-08-16T11:08:06.988Z,33.16
2022-08-16T11:13:57.509Z,33.18
2022-08-16T11:18:54.901Z,33.24
2022-08-16T11:24:01.810Z,33.46
2022-08-16T11:29:15.261Z,33.30
2022-08-16T11:34:19.802Z,33.38
2022-08-16T11:39:24.609Z,33.76
2022-08-16T11:44:52.265Z,34.16
2022-08-16T11:49:51.850Z,34.37
2022-08-16T11:55:00.008Z,34.42
2022-08-16T12:00:07.584Z,34.61
2022-08-16T12:05:31.478Z,34.69
2022-08-16T12:10:39.290Z,34.51
2022-08-16T12:15:43.629Z,34.46
2022-08-16T12:20:51.766Z,34.44
2022-08-16T12:25:58.754Z,34.54
2022-08-16T12:31:03.093Z,34.49
2022-08-16T12:36:09.934Z,34.54
2022-08-16T12:41:24.454Z,34.58
2022-08-16T12:46:29.197Z,34.59
2022-08-16T12:51:59.546Z,34.65
2022-08-16T12:57:01.830Z,34.74
2022-08-16T13:02:06.371Z,34.82
2022-08-16T13:07:16.642Z,35.00
2022-08-16T13:12:24.923Z,35.08
2022-08-16T13:17:29.683Z,35.13
2022-08-16T13:22:35.363Z,35.20
2022-08-16T13:28:02.280Z,35.22
2022-08-16T13:33:10.820Z,35.31
2022-08-16T13:38:21.581Z,35.53
2022-08-16T13:43:32.534Z,35.74
2022-08-16T13:48:44.490Z,35.96
2022-08-16T13:53:59.791Z,36.12
2022-08-16T13:59:14.439Z,36.26
2022-08-16T14:04:28.910Z,36.31
2022-08-16T14:09:34.667Z,36.54
2022-08-16T14:14:38.093Z,39.33
2022-08-16T14:19:45.098Z,42.92
2022-08-16T14:24:51.630Z,46.39
2022-08-16T14:29:56.525Z,49.32
2022-08-16T14:35:01.736Z,51.59
2022-08-16T14:40:08.539Z,53.97
2022-08-16T14:45:15.774Z,56.62
2022-08-16T14:50:24.154Z,58.85
2022-08-16T14:55:31.896Z,60.44
2022-08-16T15:00:36.686Z,62.29
2022-08-16T15:05:42.234Z,61.71
2022-08-16T15:10:45.902Z,57.97
2022-08-16T15:15:58.779Z,57.73
2022-08-16T15:21:05.170Z,58.24
2022-08-16T15:26:18.778Z,57.68
2022-08-16T15:31:35.752Z,59.43
2022-08-16T15:36:41.420Z,59.53
2022-08-16T15:41:46.826Z,58.76
2022-08-16T15:46:55.359Z,58.97
2022-08-16T15:52:01.492Z,56.85
2022-08-16T15:57:11.432Z,52.50
2022-08-16T16:02:16.295Z,49.44
2022-08-16T16:07:30.230Z,46.13
2022-08-16T16:12:52.943Z,43.52
2022-08-16T16:17:58.189Z,41.41
2022-08-16T16:23:10.400Z,39.85
2022-08-16T16:29:05.926Z,38.23
2022-08-16T16:33:50.395Z,36.90
2022-08-16T16:38:53.719Z,35.79
2022-08-16T16:43:58.564Z,34.68
2022-08-16T16:49:06.995Z,33.93
2022-08-16T16:54:12.858Z,33.21
2022-08-16T16:59:17.409Z,32.57
2022-08-16T17:04:31.443Z,31.92
2022-08-16T17:09:40.159Z,31.35
2022-08-16T17:14:44.444Z,30.82
2022-08-16T17:19:49.495Z,30.31
2022-08-16T17:24:53.724Z,29.88
2022-08-16T17:29:58.375Z,29.52
2022-08-16T17:35:09.069Z,29.20
2022-08-16T17:40:26.904Z,28.86
2022-08-16T17:45:42.773Z,28.53
2022-08-16T17:50:47.556Z,28.18
2022-08-16T17:56:54.966Z,27.91
2022-08-16T18:01:59.165Z,27.58
2022-08-16T18:07:05.584Z,27.34
2022-08-16T18:12:50.943Z,27.13
2022-08-16T18:17:44.086Z,26.89
2022-08-16T18:22:48.226Z,26.61
2022-08-16T18:27:51.799Z,26.37
2022-08-16T18:32:56.646Z,26.21
2022-08-16T18:38:00.126Z,26.08
2022-08-16T18:43:06.650Z,25.94
2022-08-16T18:48:11.553Z,25.79
2022-08-16T18:53:18.413Z,25.61
2022-08-16T18:58:22.212Z,25.47
2022-08-16T19:03:31.872Z,25.33
2022-08-16T19:08:36.116Z,25.20
2022-08-16T19:13:40.848Z,25.14
2022-08-16T19:18:44.264Z,25.11
2022-08-16T19:23:47.779Z,25.08
2022-08-16T19:28:58.301Z,25.03
2022-08-16T19:34:04.623Z,24.97
2022-08-16T19:39:09.757Z,24.90
2022-08-16T19:44:14.132Z,24.82
2022-08-16T19:49:17.755Z,24.73
2022-08-16T19:54:21.112Z,24.64
2022-08-16T19:59:39.553Z,24.60
2022-08-16T20:04:44.269Z,24.56
2022-08-16T20:09:48.953Z,24.52
2022-08-16T20:14:53.557Z,24.48
2022-08-16T20:19:56.867Z,24.43
2022-08-16T20:25:02.702Z,24.36
2022-08-16T20:30:08.320Z,24.29
2022-08-16T20:35:13.954Z,24.23
2022-08-16T20:40:34.850Z,24.16
2022-08-16T20:45:40.360Z,24.09
2022-08-16T20:50:44.482Z,24.05
2022-08-16T20:55:48.098Z,23.99
2022-08-16T21:00:51.484Z,23.92
2022-08-16T21:05:59.024Z,23.88
2022-08-16T21:11:05.051Z,23.85
2022-08-16T21:16:08.409Z,23.73
2022-08-16T21:21:12.537Z,23.65
2022-08-16T21:26:15.969Z,23.57
2022-08-16T21:31:19.265Z,23.50
2022-08-16T21:36:35.320Z,23.48
2022-08-16T21:41:39.608Z,23.43
2022-08-16T21:46:42.918Z,23.40
2022-08-16T21:51:46.165Z,23.38
2022-08-16T21:56:49.643Z,23.34
2022-08-16T22:01:53.237Z,23.30
2022-08-16T22:07:03.226Z,23.23
2022-08-16T22:12:07.663Z,23.20
2022-08-16T22:17:10.977Z,23.16
2022-08-16T22:22:14.389Z,23.11
2022-08-16T22:27:17.904Z,23.08
2022-08-16T22:32:22.039Z,23.09
2022-08-16T22:37:25.347Z,23.12
2022-08-16T22:42:30.502Z,23.11
2022-08-16T22:47:33.816Z,23.12
2022-08-16T22:52:56.021Z,23.13
2022-08-16T22:58:00.502Z,22.96
2022-08-16T23:03:18.254Z,22.85
2022-08-16T23:08:33.647Z,22.75
2022-08-16T23:13:52.956Z,22.67
2022-08-16T23:18:58.036Z,22.59
2022-08-16T23:24:02.318Z,22.52
2022-08-16T23:29:06.449Z,22.50
2022-08-16T23:34:19.283Z,22.44
2022-08-16T23:39:22.901Z,22.35
2022-08-16T23:44:58.533Z,22.28
2022-08-16T23:50:01.990Z,22.25
2022-08-16T23:55:07.444Z,22.24
